Time;durP1;ratioP1;P1;durP2;ratioP2;P2;SDS_P1;SDS_P2;PMS_P1;PMS_P2;Temp;Humidity;BMP_temperature;BMP_pressure;BME280_temperature;BME280_humidity;BME280_pressure;Samples;Min_cycle;Max_cycle;Signal;HPM_P1;HPM_P2
2022/08/28 00:01:03;;;;;;;3.60;3.30;;;25.10;53.50;;;;;;5171394;27;45305;-70
2022/08/28 00:03:31;;;;;;;3.25;3.05;;;25.10;53.40;;;;;;5171340;27;45278;-70
2022/08/28 00:05:58;;;;;;;3.92;3.38;;;25.10;53.50;;;;;;5171720;27;45167;-70
2022/08/28 00:08:25;;;;;;;3.70;3.40;;;25.00;53.30;;;;;;5151255;27;45463;-70
2022/08/28 00:10:53;;;;;;;3.53;3.17;;;25.10;53.30;;;;;;5148776;27;45242;-70
2022/08/28 00:13:21;;;;;;;3.90;3.60;;;25.10;53.30;;;;;;5150507;27;45228;-70
2022/08/28 00:15:49;;;;;;;3.35;3.05;;;25.00;53.30;;;;;;5150130;27;45442;-70
2022/08/28 00:18:16;;;;;;;3.00;2.80;;;25.00;53.20;;;;;;5152140;27;45610;-70
2022/08/28 00:20:43;;;;;;;3.72;3.42;;;25.00;53.20;;;;;;5149797;27;45338;-70
2022/08/28 00:23:09;;;;;;;3.35;3.13;;;25.00;53.10;;;;;;5149970;27;45315;-70
2022/08/28 00:25:36;;;;;;;3.65;3.35;;;25.00;53.10;;;;;;5150069;27;45285;-69
2022/08/28 00:28:06;;;;;;;3.50;3.20;;;25.00;53.10;;;;;;5149547;27;45238;-70
2022/08/28 00:30:34;;;;;;;3.42;3.13;;;25.00;53.10;;;;;;5158747;27;45236;-69
2022/08/28 00:33:02;;;;;;;3.50;3.20;;;25.00;53.10;;;;;;5170942;27;45138;-70
2022/08/28 00:35:29;;;;;;;3.90;3.60;;;25.00;53.10;;;;;;5170980;27;45360;-70
2022/08/28 00:37:56;;;;;;;3.50;3.20;;;25.00;53.10;;;;;;5170234;27;45317;-70
2022/08/28 00:40:24;;;;;;;3.67;3.38;;;25.00;53.70;;;;;;5170547;27;45364;-70
2022/08/28 00:42:51;;;;;;;5.13;3.40;;;24.90;53.00;;;;;;5170683;27;45197;-70
2022/08/28 00:45:19;;;;;;;4.28;3.30;;;24.90;53.00;;;;;;5171135;27;45432;-70
2022/08/28 00:47:46;;;;;;;3.20;3.00;;;24.90;53.10;;;;;;5170458;27;45459;-70
2022/08/28 00:50:17;;;;;;;3.58;3.35;;;24.90;53.00;;;;;;5170488;27;45244;-70
2022/08/28 00:52:43;;;;;;;3.80;3.50;;;24.90;53.00;;;;;;5170764;27;45229;-70
2022/08/28 00:55:12;;;;;;;3.53;3.28;;;24.90;53.10;;;;;;5170820;27;45312;-69
2022/08/28 00:57:40;;;;;;;3.38;3.10;;;24.90;53.10;;;;;;5170458;27;45373;-69
2022/08/28 01:00:09;;;;;;;3.38;3.08;;;24.90;53.10;;;;;;5170421;27;45254;-70
2022/08/28 01:02:37;;;;;;;3.58;3.28;;;24.90;53.00;;;;;;5170437;27;45317;-70
2022/08/28 01:05:06;;;;;;;3.28;2.95;;;24.90;53.00;;;;;;5170628;27;45207;-70
2022/08/28 01:07:33;;;;;;;3.67;3.38;;;24.80;53.00;;;;;;5157998;27;46654;-69
2022/08/28 01:10:00;;;;;;;3.45;3.08;;;24.80;53.00;;;;;;5149306;27;45229;-70
2022/08/28 01:12:28;;;;;;;3.58;3.28;;;24.80;52.90;;;;;;5149439;27;45281;-70
2022/08/28 01:14:57;;;;;;;3.83;3.53;;;24.80;52.90;;;;;;5149370;27;45458;-70
2022/08/28 01:17:24;;;;;;;3.45;3.25;;;24.80;53.00;;;;;;5148739;27;46677;-69
2022/08/28 01:19:57;;;;;;;5.40;4.05;;;24.80;53.00;;;;;;5151214;27;45260;-70
2022/08/28 01:22:26;;;;;;;3.70;3.30;;;24.80;53.00;;;;;;5148854;27;45170;-69
2022/08/28 01:24:55;;;;;;;3.22;3.03;;;24.80;52.90;;;;;;5149182;27;45323;-70
2022/08/28 01:27:22;;;;;;;3.25;3.03;;;24.80;53.00;;;;;;5148934;27;46355;-70
2022/08/28 01:29:49;;;;;;;3.67;3.38;;;24.70;52.90;;;;;;5151569;27;45228;-70
2022/08/28 01:32:28;;;;;;;4.03;3.50;;;24.70;52.90;;;;;;5170160;27;45549;-70
2022/08/28 01:34:55;;;;;;;3.45;3.25;;;24.70;53.00;;;;;;5170452;27;45503;-69
2022/08/28 01:37:22;;;;;;;4.28;3.53;;;24.70;52.90;;;;;;5169505;27;45499;-70
2022/08/28 01:39:49;;;;;;;3.75;3.45;;;24.70;52.80;;;;;;5169728;27;45196;-70
2022/08/28 01:42:17;;;;;;;3.70;3.40;;;24.70;52.90;;;;;;5170004;27;45247;-70
2022/08/28 01:44:44;;;;;;;3.25;3.05;;;24.70;52.80;;;;;;5170168;27;45373;-70
2022/08/28 01:47:11;;;;;;;3.55;3.20;;;24.70;52.80;;;;;;5169606;27;45238;-70
2022/08/28 01:49:38;;;;;;;3.42;3.13;;;24.70;52.80;;;;;;5169629;27;45205;-70
2022/08/28 01:52:05;;;;;;;3.42;3.13;;;24.70;52.80;;;;;;5169828;27;45256;-70
2022/08/28 01:54:31;;;;;;;3.67;3.38;;;24.60;52.70;;;;;;5169796;27;45336;-70
2022/08/28 01:56:58;;;;;;;3.70;3.40;;;24.60;52.70;;;;;;5169332;27;45458;-70
2022/08/28 01:59:26;;;;;;;4.13;3.28;;;24.60;52.70;;;;;;5169507;27;45150;-70
2022/08/28 02:01:54;;;;;;;3.55;3.20;;;24.60;52.60;;;;;;5169464;27;45182;-70
2022/08/28 02:04:20;;;;;;;3.75;3.38;;;24.60;52.70;;;;;;5169740;27;45298;-70
2022/08/28 02:06:47;;;;;;;3.53;3.22;;;24.60;52.60;;;;;;5163594;27;45313;-70
2022/08/28 02:09:14;;;;;;;3.33;3.03;;;24.60;52.70;;;;;;5148151;27;45328;-70
2022/08/28 02:11:42;;;;;;;3.78;3.47;;;24.60;52.70;;;;;;5148865;27;45226;-69
2022/08/28 02:14:08;;;;;;;3.75;3.20;;;24.50;53.30;;;;;;5148551;27;45426;-69
2022/08/28 02:16:37;;;;;;;3.70;3.40;;;24.50;52.60;;;;;;5148190;27;45490;-69
2022/08/28 02:19:04;;;;;;;3.55;3.28;;;24.50;52.60;;;;;;5150397;27;45370;-69
2022/08/28 02:21:31;;;;;;;3.30;3.03;;;24.50;52.60;;;;;;5148429;27;45260;-70
2022/08/28 02:23:58;;;;;;;3.30;3.00;;;24.50;52.60;;;;;;5148469;27;45332;-70
2022/08/28 02:26:24;;;;;;;3.53;3.22;;;24.50;52.50;;;;;;5148264;27;45201;-70
2022/08/28 02:28:51;;;;;;;3.88;3.28;;;24.50;52.50;;;;;;5148121;27;45281;-69
2022/08/28 02:31:19;;;;;;;3.90;3.55;;;24.50;52.60;;;;;;5163706;27;45324;-70
2022/08/28 02:33:47;;;;;;;3.50;3.20;;;24.50;52.50;;;;;;5170117;27;45222;-70
2022/08/28 02:36:14;;;;;;;3.50;3.20;;;24.50;52.50;;;;;;5172601;27;46364;-69
2022/08/28 02:38:41;;;;;;;3.08;2.88;;;24.40;52.50;;;;;;5172336;27;45351;-69
2022/08/28 02:41:08;;;;;;;3.50;3.20;;;24.40;52.60;;;;;;5172789;27;45292;-70
2022/08/28 02:43:35;;;;;;;4.63;3.08;;;24.40;52.50;;;;;;5172979;27;45309;-70
2022/08/28 02:46:02;;;;;;;3.20;3.00;;;24.40;52.50;;;;;;5172854;27;46363;-69
2022/08/28 02:48:30;;;;;;;3.53;3.20;;;24.40;52.50;;;;;;5172625;27;45186;-69
2022/08/28 02:50:59;;;;;;;3.85;3.50;;;24.40;52.50;;;;;;5172737;27;45419;-70
2022/08/28 02:53:27;;;;;;;3.60;3.30;;;24.40;52.60;;;;;;5172721;27;45137;-70
2022/08/28 02:55:54;;;;;;;3.30;3.10;;;24.30;52.50;;;;;;5172137;27;45452;-69
2022/08/28 02:58:20;;;;;;;3.50;3.20;;;24.30;52.50;;;;;;5172488;27;45243;-70
2022/08/28 03:00:48;;;;;;;3.60;3.30;;;24.30;52.40;;;;;;5172621;27;45404;-70
2022/08/28 03:03:15;;;;;;;3.60;3.30;;;24.30;52.50;;;;;;5172697;27;45411;-70
2022/08/28 03:05:42;;;;;;;3.50;3.20;;;24.30;52.50;;;;;;5172250;27;45551;-70
2022/08/28 03:08:10;;;;;;;3.45;3.25;;;24.30;52.50;;;;;;5154938;27;45235;-70
2022/08/28 03:10:37;;;;;;;4.00;3.60;;;24.30;52.50;;;;;;5151200;27;45258;-70
2022/08/28 03:13:04;;;;;;;3.65;3.35;;;24.30;53.10;;;;;;5151756;27;45378;-70
2022/08/28 03:15:31;;;;;;;3.55;3.25;;;24.30;52.50;;;;;;5150934;27;45713;-70
2022/08/28 03:17:58;;;;;;;4.10;3.05;;;24.30;52.40;;;;;;5151562;27;45219;-70
2022/08/28 03:20:25;;;;;;;3.67;3.38;;;24.30;52.50;;;;;;5152790;27;45222;-70
2022/08/28 03:25:38;;;;;;;3.50;3.30;;;24.30;52.50;;;;;;5148040;27;45303;-70
2022/08/28 03:28:05;;;;;;;3.50;3.20;;;24.20;52.40;;;;;;5150769;27;45283;-70
2022/08/28 03:30:31;;;;;;;3.22;2.92;;;24.20;52.40;;;;;;5159896;27;45286;-70
2022/08/28 03:32:58;;;;;;;3.50;3.20;;;24.20;53.00;;;;;;5172082;27;45210;-70
2022/08/28 03:35:25;;;;;;;3.53;3.22;;;24.20;52.30;;;;;;5171730;27;45222;-70
2022/08/28 03:37:52;;;;;;;3.65;3.33;;;24.20;52.30;;;;;;5171481;27;45295;-70
2022/08/28 03:40:20;;;;;;;3.35;3.05;;;24.20;52.40;;;;;;5171981;27;45133;-70
2022/08/28 03:42:48;;;;;;;3.42;3.22;;;24.20;52.30;;;;;;5172020;27;45326;-70
2022/08/28 03:45:15;;;;;;;3.58;3.28;;;24.20;52.30;;;;;;5171192;27;45223;-69
2022/08/28 03:47:42;;;;;;;3.78;3.38;;;24.10;52.30;;;;;;5171687;27;45271;-70
2022/08/28 03:50:10;;;;;;;3.28;3.03;;;24.10;52.30;;;;;;5171725;27;45294;-70
2022/08/28 03:52:37;;;;;;;3.15;2.95;;;24.10;52.30;;;;;;5171979;27;45121;-70
2022/08/28 03:55:04;;;;;;;3.72;3.38;;;24.10;52.30;;;;;;5171545;27;45352;-70
2022/08/28 03:57:30;;;;;;;3.72;3.30;;;24.10;52.30;;;;;;5171549;27;45180;-70
2022/08/28 03:59:59;;;;;;;3.25;2.95;;;24.10;52.40;;;;;;5171638;27;45263;-70
2022/08/28 04:02:25;;;;;;;3.50;3.20;;;24.10;52.40;;;;;;5171833;27;45277;-70
2022/08/28 04:04:52;;;;;;;2.95;2.75;;;24.10;52.30;;;;;;5171214;27;46345;-70
2022/08/28 04:07:19;;;;;;;2.90;2.70;;;24.10;52.40;;;;;;5161039;27;45234;-70
2022/08/28 04:09:46;;;;;;;3.97;3.15;;;24.10;53.00;;;;;;5150266;27;45184;-70
2022/08/28 04:12:13;;;;;;;3.30;3.08;;;24.10;52.40;;;;;;5150521;27;45380;-70
2022/08/28 04:14:40;;;;;;;3.42;3.10;;;24.00;52.30;;;;;;5150160;27;46387;-70
2022/08/28 04:17:08;;;;;;;3.20;2.90;;;24.00;52.40;;;;;;5149963;27;45174;-70
2022/08/28 04:19:35;;;;;;;3.85;3.45;;;24.00;52.30;;;;;;5152394;27;45321;-70
2022/08/28 04:22:02;;;;;;;2.90;2.70;;;24.00;52.30;;;;;;5150306;27;45309;-70
2022/08/28 04:24:29;;;;;;;3.30;3.00;;;24.00;52.30;;;;;;5149869;27;45356;-70
2022/08/28 04:26:56;;;;;;;3.40;3.10;;;24.00;52.30;;;;;;5149987;27;45286;-70
2022/08/28 04:29:23;;;;;;;3.22;2.92;;;24.00;52.30;;;;;;5149717;27;45192;-70
2022/08/28 04:31:50;;;;;;;3.17;2.88;;;24.00;52.30;;;;;;5170343;27;45250;-70
2022/08/28 04:34:18;;;;;;;3.33;2.92;;;24.00;52.30;;;;;;5170810;27;45838;-70
2022/08/28 04:36:45;;;;;;;3.40;3.10;;;23.90;52.20;;;;;;5170857;27;45418;-70
2022/08/28 04:39:12;;;;;;;3.00;2.80;;;23.90;52.30;;;;;;5171188;27;45178;-70
2022/08/28 04:41:39;;;;;;;4.18;3.25;;;23.90;52.20;;;;;;5171184;27;45179;-70
2022/08/28 04:44:06;;;;;;;3.25;3.05;;;23.90;52.30;;;;;;5170691;27;45250;-70
2022/08/28 04:46:32;;;;;;;3.40;3.05;;;23.90;52.20;;;;;;5170837;27;45274;-70
2022/08/28 04:48:59;;;;;;;3.30;3.03;;;23.90;52.20;;;;;;5170979;27;45267;-70
2022/08/28 04:51:28;;;;;;;5.35;3.00;;;23.90;52.20;;;;;;5171058;27;45324;-70
2022/08/28 04:53:54;;;;;;;2.80;2.60;;;23.90;52.30;;;;;;5170073;27;45208;-71
2022/08/28 04:56:21;;;;;;;4.20;3.25;;;23.90;52.20;;;;;;5169889;27;45194;-70
2022/08/28 04:58:48;;;;;;;2.97;2.78;;;23.90;52.20;;;;;;5170696;27;45317;-70
2022/08/28 05:01:17;;;;;;;3.38;3.10;;;23.80;52.30;;;;;;5171088;27;45290;-70
2022/08/28 05:03:44;;;;;;;2.95;2.75;;;23.80;52.30;;;;;;5170449;27;46626;-70
2022/08/28 05:06:12;;;;;;;3.47;2.97;;;23.80;52.20;;;;;;5170290;27;45193;-70
2022/08/28 05:08:40;;;;;;;3.20;2.90;;;23.90;52.20;;;;;;5149570;27;45299;-70
2022/08/28 05:11:11;;;;;;;3.45;3.15;;;23.80;52.30;;;;;;5149690;27;45331;-70
2022/08/28 05:13:38;;;;;;;3.83;2.97;;;23.80;52.20;;;;;;5149198;27;45524;-70
2022/08/28 05:16:05;;;;;;;2.90;2.70;;;23.80;52.20;;;;;;5149001;27;45220;-70
2022/08/28 05:18:32;;;;;;;2.97;2.78;;;23.80;52.20;;;;;;5151562;27;45297;-70
2022/08/28 05:21:00;;;;;;;3.22;3.03;;;23.80;52.20;;;;;;5149462;27;45238;-70
2022/08/28 05:23:27;;;;;;;3.10;2.90;;;23.80;52.20;;;;;;5149000;27;46787;-70
2022/08/28 05:25:55;;;;;;;3.20;2.90;;;23.80;52.30;;;;;;5149209;27;45233;-70
2022/08/28 05:28:23;;;;;;;3.10;2.80;;;23.70;52.10;;;;;;5149280;27;45141;-70
2022/08/28 05:30:50;;;;;;;3.13;2.85;;;23.80;52.20;;;;;;5160839;27;45568;-70
2022/08/28 05:33:16;;;;;;;3.00;2.70;;;23.70;52.20;;;;;;5170262;27;46583;-70
2022/08/28 05:35:44;;;;;;;3.22;3.03;;;23.70;52.10;;;;;;5170280;27;45367;-70
2022/08/28 05:38:11;;;;;;;3.38;3.08;;;23.70;52.80;;;;;;5169682;27;45295;-70
2022/08/28 05:40:41;;;;;;;3.58;3.28;;;23.70;52.20;;;;;;5170341;27;45407;-70
2022/08/28 05:43:09;;;;;;;3.00;2.78;;;23.70;52.10;;;;;;5169871;27;45314;-70
2022/08/28 05:45:36;;;;;;;3.13;2.92;;;23.70;52.10;;;;;;5169872;27;45396;-70
2022/08/28 05:48:03;;;;;;;3.20;3.00;;;23.70;52.10;;;;;;5170008;27;45229;-70
2022/08/28 05:50:30;;;;;;;2.95;2.75;;;23.70;52.10;;;;;;5170208;27;45120;-70
2022/08/28 05:52:57;;;;;;;3.20;2.90;;;23.70;52.10;;;;;;5169742;27;47555;-70
2022/08/28 05:55:24;;;;;;;3.25;2.90;;;23.70;52.10;;;;;;5169777;27;45361;-70
2022/08/28 05:57:51;;;;;;;2.90;2.70;;;23.70;52.10;;;;;;5169695;27;45348;-70
2022/08/28 06:00:19;;;;;;;3.05;2.85;;;23.70;52.10;;;;;;5170248;27;45389;-70
2022/08/28 06:02:46;;;;;;;3.17;2.88;;;23.70;52.00;;;;;;5169275;27;46415;-69
2022/08/28 06:05:13;;;;;;;3.08;2.88;;;23.70;52.00;;;;;;5169162;27;45294;-70
2022/08/28 06:07:40;;;;;;;3.10;2.90;;;23.70;52.00;;;;;;5156370;27;45228;-70
2022/08/28 06:10:08;;;;;;;3.33;3.03;;;23.70;52.00;;;;;;5147986;27;45478;-70
2022/08/28 06:12:35;;;;;;;3.45;3.17;;;23.70;52.10;;;;;;5148511;27;46502;-70
2022/08/28 06:15:02;;;;;;;3.33;2.80;;;23.70;52.10;;;;;;5148388;27;45208;-70
2022/08/28 06:17:30;;;;;;;3.40;3.10;;;23.70;52.10;;;;;;5148510;27;45346;-70
2022/08/28 06:19:57;;;;;;;3.20;2.90;;;23.70;52.00;;;;;;5150872;27;45219;-70
2022/08/28 06:22:24;;;;;;;2.90;2.70;;;23.70;52.10;;;;;;5148071;27;46754;-70
2022/08/28 06:24:50;;;;;;;3.28;2.92;;;23.70;52.10;;;;;;5148313;27;45180;-70
2022/08/28 06:27:17;;;;;;;4.60;3.35;;;23.70;51.90;;;;;;5148588;27;45458;-70
2022/08/28 06:29:44;;;;;;;3.10;2.80;;;23.70;52.00;;;;;;5150473;27;45395;-70
2022/08/28 06:32:12;;;;;;;3.00;2.80;;;23.70;52.00;;;;;;5169335;27;46894;-70
2022/08/28 06:34:40;;;;;;;3.17;2.97;;;23.70;52.00;;;;;;5169352;27;45221;-70
2022/08/28 06:37:08;;;;;;;3.40;3.10;;;23.70;52.00;;;;;;5168944;27;45276;-70
2022/08/28 06:39:35;;;;;;;3.35;3.05;;;23.70;52.00;;;;;;5169194;27;45249;-70
2022/08/28 06:42:02;;;;;;;3.10;2.90;;;23.70;52.00;;;;;;5168961;27;46309;-70
2022/08/28 06:44:30;;;;;;;3.60;3.20;;;23.70;52.00;;;;;;5169062;27;45137;-70
2022/08/28 06:46:57;;;;;;;3.50;3.20;;;23.70;51.90;;;;;;5169078;27;45242;-70
2022/08/28 06:49:24;;;;;;;3.30;3.10;;;23.70;52.20;;;;;;5168762;27;45336;-70
2022/08/28 06:51:53;;;;;;;3.10;2.80;;;23.70;51.90;;;;;;5168735;27;45364;-70
2022/08/28 06:54:19;;;;;;;3.22;3.03;;;23.70;51.90;;;;;;5168916;27;45425;-70
2022/08/28 06:56:46;;;;;;;3.45;3.17;;;23.70;51.90;;;;;;5168794;27;45121;-70
2022/08/28 06:59:13;;;;;;;3.38;3.10;;;23.70;51.90;;;;;;5169141;27;45320;-70
2022/08/28 07:01:40;;;;;;;3.15;2.85;;;23.70;52.00;;;;;;5168616;27;46732;-70
2022/08/28 07:04:08;;;;;;;3.08;2.78;;;23.70;52.00;;;;;;5168814;27;45312;-70
2022/08/28 07:06:36;;;;;;;3.80;3.30;;;23.70;52.00;;;;;;5165031;27;45197;-71
2022/08/28 07:09:05;;;;;;;3.00;2.80;;;23.70;51.90;;;;;;5148174;27;45458;-71
2022/08/28 07:11:32;;;;;;;4.20;3.85;;;23.70;52.00;;;;;;5145898;27;45672;-71
2022/08/28 07:13:59;;;;;;;3.88;3.40;;;23.80;53.80;;;;;;5147420;27;45228;-71
2022/08/28 07:16:28;;;;;;;3.92;3.63;;;23.80;52.90;;;;;;5148020;27;45208;-71
2022/08/28 07:18:55;;;;;;;4.00;3.45;;;23.80;52.90;;;;;;5150320;27;45312;-71
2022/08/28 07:21:21;;;;;;;4.40;4.00;;;23.80;52.60;;;;;;5150484;27;45316;-71
2022/08/28 07:23:48;;;;;;;4.43;4.03;;;23.80;53.80;;;;;;5151245;27;45248;-71
2022/08/28 07:26:19;;;;;;;5.03;4.15;;;23.80;53.50;;;;;;5151246;27;45199;-71
2022/08/28 07:28:46;;;;;;;4.95;4.38;;;23.80;53.90;;;;;;5151602;27;45466;-71
2022/08/28 07:31:14;;;;;;;4.43;4.03;;;23.80;54.50;;;;;;5166047;27;45246;-71
2022/08/28 07:33:41;;;;;;;5.07;4.57;;;23.80;54.10;;;;;;5172005;27;45189;-71
2022/08/28 07:36:15;;;;;;;5.38;4.15;;;23.80;55.20;;;;;;5172038;27;45411;-71
2022/08/28 07:38:42;;;;;;;4.20;3.88;;;23.80;54.30;;;;;;5171647;27;45173;-71
2022/08/28 07:41:13;;;;;;;4.10;3.80;;;23.90;54.10;;;;;;5171752;27;45251;-71
2022/08/28 07:46:22;;;;;;;4.47;4.07;;;23.90;53.80;;;;;;5124742;27;45350;-71
2022/08/28 07:48:49;;;;;;;5.00;4.55;;;23.90;53.80;;;;;;5172211;27;45419;-71
2022/08/28 07:51:15;;;;;;;4.90;4.40;;;23.90;53.50;;;;;;5171797;27;47317;-71
2022/08/28 07:53:42;;;;;;;4.57;4.20;;;23.90;53.50;;;;;;5171544;27;45193;-71
2022/08/28 07:56:10;;;;;;;4.25;3.95;;;24.00;53.50;;;;;;5171664;27;45313;-71
2022/08/28 07:58:37;;;;;;;4.28;3.88;;;24.00;53.50;;;;;;5171815;27;45371;-71
2022/08/28 08:01:06;;;;;;;4.20;3.88;;;24.00;53.50;;;;;;5171744;27;46278;-71
2022/08/28 08:03:33;;;;;;;4.65;4.25;;;24.10;53.50;;;;;;5171674;27;45269;-71
2022/08/28 08:06:01;;;;;;;5.00;4.55;;;24.10;54.10;;;;;;5171601;27;45292;-71
2022/08/28 08:08:28;;;;;;;4.85;4.40;;;24.10;54.70;;;;;;5151696;27;45464;-71
2022/08/28 08:10:59;;;;;;;4.00;3.70;;;24.10;54.20;;;;;;5150264;27;46661;-71
2022/08/28 08:13:26;;;;;;;5.15;3.97;;;24.10;54.10;;;;;;5150550;27;45240;-72
2022/08/28 08:15:53;;;;;;;4.43;4.03;;;24.10;53.90;;;;;;5150446;27;45302;-72
2022/08/28 08:18:21;;;;;;;5.30;4.40;;;24.10;53.90;;;;;;5152837;27;45420;-71
2022/08/28 08:20:48;;;;;;;4.18;3.80;;;24.20;54.30;;;;;;5150305;27;45312;-72
2022/08/28 08:23:15;;;;;;;5.00;4.55;;;24.20;53.80;;;;;;5149989;27;45294;-72
2022/08/28 08:25:42;;;;;;;5.05;4.57;;;24.20;53.90;;;;;;5150306;27;45311;-71
2022/08/28 08:28:08;;;;;;;4.45;4.15;;;24.30;53.80;;;;;;5150638;27;45397;-72
2022/08/28 08:30:35;;;;;;;4.60;4.15;;;24.30;53.90;;;;;;5158920;27;45205;-72
2022/08/28 08:33:02;;;;;;;4.20;3.80;;;24.30;53.80;;;;;;5169582;27;45177;-72
2022/08/28 08:35:30;;;;;;;4.30;4.00;;;24.30;53.70;;;;;;5171183;27;45259;-72
2022/08/28 08:37:57;;;;;;;4.25;3.92;;;24.30;54.00;;;;;;5171023;27;45453;-72
2022/08/28 08:40:24;;;;;;;5.40;4.50;;;24.30;54.10;;;;;;5171179;27;45236;-72
2022/08/28 08:42:54;;;;;;;4.82;4.40;;;24.40;54.40;;;;;;5170995;27;45213;-72
2022/08/28 08:45:25;;;;;;;4.65;4.25;;;24.40;53.90;;;;;;5170784;27;45428;-72
2022/08/28 08:47:57;;;;;;;4.72;4.32;;;24.40;54.40;;;;;;5171062;27;45491;-72
2022/08/28 08:50:25;;;;;;;5.00;4.50;;;24.40;55.10;;;;;;5170300;27;45450;-72
2022/08/28 08:53:09;;;;;;;4.63;4.18;;;24.40;54.30;;;;;;5170759;27;45201;-72
2022/08/28 08:55:36;;;;;;;5.07;4.57;;;24.50;54.20;;;;;;5171202;27;45244;-72
2022/08/28 08:58:05;;;;;;;4.65;4.25;;;24.40;54.30;;;;;;5171224;27;45382;-72
2022/08/28 09:00:33;;;;;;;5.40;4.90;;;24.50;54.20;;;;;;5170791;27;45572;-72
2022/08/28 09:03:04;;;;;;;5.22;4.82;;;24.50;54.40;;;;;;5170891;27;45183;-72
2022/08/28 09:05:47;;;;;;;5.70;4.82;;;24.50;54.70;;;;;;5170816;27;45309;-72
2022/08/28 09:08:23;;;;;;;7.65;6.50;;;24.50;54.60;;;;;;5153255;27;45192;-72
2022/08/28 09:10:53;;;;;;;7.45;6.03;;;24.50;55.40;;;;;;5149482;27;45286;-71
2022/08/28 09:13:24;;;;;;;7.80;7.00;;;24.50;55.50;;;;;;5149418;27;45188;-72
2022/08/28 09:15:51;;;;;;;6.75;6.15;;;24.50;56.00;;;;;;5149620;27;45279;-72
2022/08/28 09:18:19;;;;;;;7.10;6.30;;;24.50;55.30;;;;;;5152069;27;45395;-72
2022/08/28 09:20:49;;;;;;;6.80;6.15;;;24.60;55.40;;;;;;5149360;27;46386;-72
2022/08/28 09:23:18;;;;;;;6.43;5.82;;;24.60;55.30;;;;;;5149205;27;45304;-72
2022/08/28 09:25:53;;;;;;;6.90;6.30;;;24.60;55.40;;;;;;5149640;27;45315;-72
2022/08/28 09:28:22;;;;;;;6.60;5.97;;;24.60;55.90;;;;;;5149627;27;45214;-71
2022/08/28 09:30:58;;;;;;;7.18;6.35;;;24.60;55.30;;;;;;5160485;27;46378;-71
2022/08/28 09:33:30;;;;;;;6.30;5.60;;;24.60;55.30;;;;;;5170479;27;45303;-72
2022/08/28 09:35:57;;;;;;;6.30;5.60;;;24.60;54.90;;;;;;5170299;27;45157;-71
2022/08/28 09:38:25;;;;;;;6.60;6.00;;;24.70;55.10;;;;;;5170173;27;45171;-71
2022/08/28 09:43:50;;;;;;;6.93;6.22;;;24.70;55.70;;;;;;5136988;27;45450;-71
2022/08/28 09:46:19;;;;;;;7.00;6.30;;;24.70;55.70;;;;;;5128095;27;45238;-72
2022/08/28 09:48:46;;;;;;;7.60;6.70;;;24.80;56.40;;;;;;5148449;27;45399;-71
2022/08/28 09:51:14;;;;;;;9.02;7.18;;;24.80;56.90;;;;;;5135903;27;45226;-72
2022/08/28 09:53:56;;;;;;;7.25;6.28;;;24.80;56.70;;;;;;5131051;27;45163;-71
2022/08/28 09:56:27;;;;;;;8.45;6.85;;;24.90;56.90;;;;;;5128164;27;45316;-71
2022/08/28 09:58:55;;;;;;;7.20;6.50;;;24.90;57.00;;;;;;5135118;27;45439;-71
2022/08/28 10:01:35;;;;;;;8.13;7.32;;;24.90;57.10;;;;;;5150493;27;46634;-71
2022/08/28 10:04:11;;;;;;;7.90;7.20;;;24.90;56.40;;;;;;5150217;27;45167;-71
2022/08/28 10:06:38;;;;;;;7.40;6.70;;;24.90;56.40;;;;;;5151849;27;45157;-71
2022/08/28 10:09:11;;;;;;;7.75;7.03;;;24.90;56.40;;;;;;5171192;27;45497;-71
2022/08/28 10:11:41;;;;;;;7.78;6.97;;;25.00;56.90;;;;;;5169437;27;45357;-71
2022/08/28 10:14:14;;;;;;;7.63;6.85;;;25.00;57.00;;;;;;5169448;27;45304;-71
2022/08/28 10:16:45;;;;;;;7.72;6.32;;;25.00;56.60;;;;;;5157997;27;45607;-71
2022/08/28 10:19:15;;;;;;;7.65;6.95;;;25.10;56.20;;;;;;5148705;27;45229;-70
2022/08/28 10:21:45;;;;;;;7.72;7.03;;;25.10;56.70;;;;;;5148318;27;46348;-71
2022/08/28 10:24:23;;;;;;;8.82;7.07;;;25.10;57.10;;;;;;5148310;27;45386;-70
2022/08/28 10:26:54;;;;;;;8.15;6.93;;;25.10;56.30;;;;;;5148470;27;45267;-70
2022/08/28 10:29:27;;;;;;;7.50;6.80;;;25.20;56.60;;;;;;5148843;27;45403;-70
2022/08/28 10:32:02;;;;;;;7.78;6.97;;;25.20;56.90;;;;;;5160825;27;45327;-70
2022/08/28 10:34:35;;;;;;;8.30;7.53;;;25.30;57.10;;;;;;5152950;27;45230;-70
2022/08/28 10:37:04;;;;;;;8.32;7.50;;;25.30;57.30;;;;;;5149483;27;45243;-69
2022/08/28 10:39:39;;;;;;;8.18;7.38;;;25.30;57.30;;;;;;5148775;27;45458;-70
2022/08/28 10:42:06;;;;;;;8.80;7.45;;;25.40;57.20;;;;;;5147672;27;45280;-70
2022/08/28 10:44:36;;;;;;;8.80;7.60;;;25.40;57.30;;;;;;5148098;27;45297;-70
2022/08/28 10:47:03;;;;;;;8.02;7.32;;;25.50;57.40;;;;;;5147481;27;45464;-70
2022/08/28 10:49:35;;;;;;;10.10;7.57;;;25.50;57.30;;;;;;5148069;27;45690;-69
2022/08/28 10:52:04;;;;;;;8.45;7.15;;;25.50;57.20;;;;;;5147922;27;45281;-70
2022/08/28 10:54:33;;;;;;;8.68;6.88;;;25.60;57.40;;;;;;5147859;27;45368;-69
2022/08/28 10:57:05;;;;;;;10.27;7.35;;;25.60;57.20;;;;;;5151282;27;45193;-69
2022/08/28 10:59:32;;;;;;;8.43;7.63;;;25.60;57.10;;;;;;5151715;27;45288;-71
2022/08/28 11:01:59;;;;;;;8.65;7.85;;;25.70;57.20;;;;;;5151355;27;46355;-70
2022/08/28 11:04:27;;;;;;;8.15;7.35;;;25.70;56.50;;;;;;5150385;27;45189;-70
2022/08/28 11:06:55;;;;;;;10.48;9.38;;;25.80;57.20;;;;;;5154997;27;45479;-69
2022/08/28 11:09:29;;;;;;;10.48;9.32;;;25.80;56.60;;;;;;5172895;27;45185;-69
2022/08/28 11:11:56;;;;;;;12.45;10.25;;;25.80;56.10;;;;;;5162369;27;46529;-71
2022/08/28 11:14:32;;;;;;;10.25;9.13;;;25.90;56.50;;;;;;5150149;27;45448;-71
2022/08/28 11:17:01;;;;;;;9.23;8.02;;;25.90;57.10;;;;;;5151250;27;45252;-71
2022/08/28 11:19:40;;;;;;;9.32;7.80;;;26.00;56.90;;;;;;5151023;27;45357;-71
2022/08/28 11:22:10;;;;;;;8.77;7.75;;;26.00;57.30;;;;;;5150147;27;46366;-71
2022/08/28 11:24:56;;;;;;;8.18;7.30;;;26.10;56.30;;;;;;5150577;27;45280;-71
2022/08/28 11:27:30;;;;;;;8.00;7.25;;;26.10;56.70;;;;;;5151208;27;45305;-71
2022/08/28 11:30:05;;;;;;;8.80;7.50;;;26.20;57.30;;;;;;5151098;27;45346;-71
2022/08/28 11:32:54;;;;;;;7.38;6.53;;;26.30;57.10;;;;;;5168626;27;46495;-72
2022/08/28 11:35:40;;;;;;;8.13;7.20;;;26.30;56.10;;;;;;5129718;27;45429;-71
2022/08/28 11:38:07;;;;;;;8.73;7.30;;;26.40;56.50;;;;;;5129915;27;45378;-71
2022/08/28 11:40:53;;;;;;;8.02;7.22;;;26.50;55.90;;;;;;5130140;27;45440;-71
2022/08/28 11:43:36;;;;;;;7.43;6.60;;;26.50;55.40;;;;;;5144523;27;45277;-72
2022/08/28 11:46:26;;;;;;;7.35;6.75;;;26.50;55.40;;;;;;5141928;27;45225;-70
2022/08/28 11:48:54;;;;;;;6.93;6.22;;;26.60;55.30;;;;;;5118153;27;45858;-70
2022/08/28 11:51:43;;;;;;;6.80;6.10;;;26.70;55.40;;;;;;5135286;27;45260;-70
2022/08/28 11:54:17;;;;;;;8.38;7.22;;;26.80;55.10;;;;;;5134995;27;46734;-70
2022/08/28 11:56:50;;;;;;;7.85;7.15;;;26.90;55.50;;;;;;5148948;27;45443;-70
2022/08/28 11:59:42;;;;;;;7.70;6.85;;;27.00;55.20;;;;;;5149040;27;45361;-70
2022/08/28 12:02:46;;;;;;;8.45;7.20;;;27.00;54.90;;;;;;5133881;27;45241;-71
2022/08/28 12:05:44;;;;;;;9.40;7.72;;;27.10;55.40;;;;;;5129890;27;45486;-71
2022/08/28 12:08:12;;;;;;;8.50;7.03;;;27.20;53.50;;;;;;5130781;27;45459;-71
2022/08/28 12:10:56;;;;;;;7.90;7.20;;;27.20;53.10;;;;;;5147826;27;45291;-71
2022/08/28 12:13:48;;;;;;;8.45;6.75;;;27.10;53.30;;;;;;5149282;27;45454;-71
2022/08/28 12:16:15;;;;;;;6.78;6.18;;;27.20;53.60;;;;;;5131784;27;46194;-71
2022/08/28 12:19:02;;;;;;;7.05;6.35;;;27.30;54.00;;;;;;5150076;27;45509;-72
2022/08/28 12:21:30;;;;;;;7.03;6.32;;;27.30;53.80;;;;;;5137476;27;45265;-72
2022/08/28 12:24:00;;;;;;;7.28;6.55;;;27.40;53.50;;;;;;5145459;27;45318;-71
2022/08/28 12:26:28;;;;;;;6.68;6.07;;;27.50;52.60;;;;;;5145597;27;45623;-71
2022/08/28 12:28:57;;;;;;;8.00;6.15;;;27.50;52.80;;;;;;5141695;27;45252;-71
2022/08/28 12:32:12;;;;;;;6.22;5.57;;;27.50;51.70;;;;;;5149244;27;45607;-71
2022/08/28 12:34:50;;;;;;;8.32;6.85;;;27.50;52.10;;;;;;5104556;27;45570;-71
2022/08/28 12:37:25;;;;;;;9.40;6.22;;;27.60;52.30;;;;;;5141862;27;45377;-71
2022/08/28 12:39:52;;;;;;;7.57;6.82;;;27.50;51.50;;;;;;5147494;27;45367;-71
2022/08/28 12:42:19;;;;;;;9.57;8.60;;;27.50;52.00;;;;;;5144548;27;45387;-71
2022/08/28 12:44:46;;;;;;;8.95;8.05;;;27.50;52.50;;;;;;5148250;27;45252;-70
2022/08/28 12:47:14;;;;;;;8.57;7.72;;;27.60;52.20;;;;;;5148352;27;45478;-71
2022/08/28 12:49:41;;;;;;;7.15;6.45;;;27.70;51.80;;;;;;5135206;27;45345;-70
2022/08/28 12:52:12;;;;;;;6.75;6.15;;;27.80;51.40;;;;;;5143289;27;45427;-72
2022/08/28 12:54:40;;;;;;;6.53;5.93;;;27.80;51.60;;;;;;5149067;27;45401;-71
2022/08/28 12:57:08;;;;;;;6.47;5.90;;;27.90;51.00;;;;;;5148487;27;46838;-72
2022/08/28 12:59:37;;;;;;;7.60;5.97;;;28.00;51.10;;;;;;5147415;27;45341;-71
2022/08/28 13:02:05;;;;;;;6.75;5.32;;;28.00;50.80;;;;;;5147413;27;45446;-71
2022/08/28 13:04:34;;;;;;;5.78;5.20;;;28.00;51.00;;;;;;5148383;27;45454;-71